Airfield :
LOGIN :

Register | Disclaimer

   EN    FR    IT 

 










Legend :    VFR   Marginal VFR   IFR   Intensive IFR   Very Intensive IFR
Visi :
Ceiling :
>= 8 km
>= 3000ft
5 to 8 km
1000 to 3000 ft
1500m to 5 km
500 to 1000 ft
800 to 1500m
200 to 500 ft
< 800m
< 200 ft
Symbols :   Thunderstorms  Fog  Heavy snow  Heavy precipitations  Wind > 20 kt
SIGMETs :     Misc.  Thunderstorms  Icing  Turbulence  Mountain Waves  Volcanic Ashes






- Airport Elevation : 82 ft
- IATA code : ALG


DAAG - Alger Houari Boumedienne

CURRENT METAR :
  • 171930Z 00000KT 9999 FEW016 06/03 Q1032

EXPIRED METARs :
  • 171900Z 13002KT 9999 FEW020 08/04 Q1032
  • 171830Z 12004KT 9999 FEW020TCU 08/03 Q1032
  • 171800Z 09004KT 9999 FEW020TCU 09/04 Q1032
  • 171730Z 07006KT 9999 FEW020CB 09/04 Q1032

TAF TAF DAAG
Valid from the 17 at 18:00 until the 18 at 18:00 UTC


171700Z 1718/1818 VRB02KT 9999 FEW020
TEMPO 1718/1721 FEW020CB
PROB30
TEMPO 1722/1806 3000 BR



MET'MAP, your aeronautical weather chart ! - Copyright ORBIFLY December 2007 - Disclaimer

ORBIFLY MET'MAP TEAM :

Programming & Development : Alexandra Zaïnal
Concept & original design : Baudouin d'Aumeries
Assistance for programming : Marc-Olivier Méhu
Technical & hardware support : Manuel Goepfert

Contact : metmap@orbifly.com




SOURCES & CREDITS :

   NOAA